sensor_id;sensor_type;location;lat;lon;timestamp;P1;durP1;ratioP1;P2;durP2;ratioP2
25503;SDS011;13410;52.114;5.718;2022-08-01T00:00:58;15.68;;;10.52;;
25503;SDS011;13410;52.114;5.718;2022-08-01T00:03:24;16.80;;;10.85;;
25503;SDS011;13410;52.114;5.718;2022-08-01T00:05:49;13.48;;;10.35;;
25503;SDS011;13410;52.114;5.718;2022-08-01T00:08:15;15.35;;;11.05;;
25503;SDS011;13410;52.114;5.718;2022-08-01T00:10:40;16.25;;;10.45;;
25503;SDS011;13410;52.114;5.718;2022-08-01T00:13:06;14.48;;;11.05;;
25503;SDS011;13410;52.114;5.718;2022-08-01T00:15:31;12.07;;;9.65;;
25503;SDS011;13410;52.114;5.718;2022-08-01T00:17:57;15.65;;;11.07;;
25503;SDS011;13410;52.114;5.718;2022-08-01T00:20:23;14.98;;;10.68;;
25503;SDS011;13410;52.114;5.718;2022-08-01T00:22:48;14.00;;;10.32;;
25503;SDS011;13410;52.114;5.718;2022-08-01T00:25:14;15.40;;;10.18;;
25503;SDS011;13410;52.114;5.718;2022-08-01T00:27:39;14.90;;;10.75;;
25503;SDS011;13410;52.114;5.718;2022-08-01T00:30:05;18.33;;;12.13;;
25503;SDS011;13410;52.114;5.718;2022-08-01T00:32:31;14.82;;;11.10;;
25503;SDS011;13410;52.114;5.718;2022-08-01T00:34:57;15.75;;;10.93;;
25503;SDS011;13410;52.114;5.718;2022-08-01T00:37:23;15.93;;;11.48;;
25503;SDS011;13410;52.114;5.718;2022-08-01T00:39:48;16.05;;;12.00;;
25503;SDS011;13410;52.114;5.718;2022-08-01T00:42:14;17.83;;;13.00;;
25503;SDS011;13410;52.114;5.718;2022-08-01T00:44:39;18.63;;;12.57;;
25503;SDS011;13410;52.114;5.718;2022-08-01T00:47:05;15.63;;;10.65;;
25503;SDS011;13410;52.114;5.718;2022-08-01T00:49:31;20.50;;;12.38;;
25503;SDS011;13410;52.114;5.718;2022-08-01T00:51:57;17.73;;;12.55;;
25503;SDS011;13410;52.114;5.718;2022-08-01T00:54:24;15.43;;;12.02;;
25503;SDS011;13410;52.114;5.718;2022-08-01T00:56:50;16.63;;;11.77;;
25503;SDS011;13410;52.114;5.718;2022-08-01T00:59:16;19.35;;;11.25;;
25503;SDS011;13410;52.114;5.718;2022-08-01T01:01:43;18.38;;;10.48;;
25503;SDS011;13410;52.114;5.718;2022-08-01T01:04:09;12.93;;;9.05;;
25503;SDS011;13410;52.114;5.718;2022-08-01T01:06:48;13.05;;;9.85;;
25503;SDS011;13410;52.114;5.718;2022-08-01T01:18:23;14.52;;;9.98;;
25503;SDS011;13410;52.114;5.718;2022-08-01T01:20:57;13.95;;;9.88;;
25503;SDS011;13410;52.114;5.718;2022-08-01T01:26:13;14.32;;;9.48;;
25503;SDS011;13410;52.114;5.718;2022-08-01T01:31:33;10.63;;;7.63;;
25503;SDS011;13410;52.114;5.718;2022-08-01T01:34:06;12.18;;;8.20;;
25503;SDS011;13410;52.114;5.718;2022-08-01T01:36:34;14.38;;;8.18;;
25503;SDS011;13410;52.114;5.718;2022-08-01T01:39:01;13.00;;;8.18;;
25503;SDS011;13410;52.114;5.718;2022-08-01T01:41:27;14.15;;;7.88;;
25503;SDS011;13410;52.114;5.718;2022-08-01T01:43:54;13.35;;;8.55;;
25503;SDS011;13410;52.114;5.718;2022-08-01T01:46:22;10.50;;;7.63;;
25503;SDS011;13410;52.114;5.718;2022-08-01T01:48:52;12.32;;;8.20;;
25503;SDS011;13410;52.114;5.718;2022-08-01T01:51:21;12.68;;;8.07;;
25503;SDS011;13410;52.114;5.718;2022-08-01T01:53:49;12.77;;;8.32;;
25503;SDS011;13410;52.114;5.718;2022-08-01T01:56:16;11.73;;;8.15;;
25503;SDS011;13410;52.114;5.718;2022-08-01T01:58:43;11.88;;;8.25;;
25503;SDS011;13410;52.114;5.718;2022-08-01T02:01:13;14.02;;;8.80;;
25503;SDS011;13410;52.114;5.718;2022-08-01T02:03:40;12.05;;;8.70;;
25503;SDS011;13410;52.114;5.718;2022-08-01T02:06:08;13.38;;;8.95;;
25503;SDS011;13410;52.114;5.718;2022-08-01T02:08:34;13.80;;;8.68;;
25503;SDS011;13410;52.114;5.718;2022-08-01T02:11:01;13.70;;;9.23;;
25503;SDS011;13410;52.114;5.718;2022-08-01T02:13:43;11.65;;;8.43;;
25503;SDS011;13410;52.114;5.718;2022-08-01T02:16:11;10.93;;;8.13;;
25503;SDS011;13410;52.114;5.718;2022-08-01T02:18:38;11.38;;;7.38;;
25503;SDS011;13410;52.114;5.718;2022-08-01T02:21:06;10.40;;;7.70;;
25503;SDS011;13410;52.114;5.718;2022-08-01T02:26:05;9.52;;;7.00;;
25503;SDS011;13410;52.114;5.718;2022-08-01T02:28:41;9.98;;;6.65;;
25503;SDS011;13410;52.114;5.718;2022-08-01T02:31:13;8.93;;;6.55;;
25503;SDS011;13410;52.114;5.718;2022-08-01T02:33:42;8.85;;;5.63;;
25503;SDS011;13410;52.114;5.718;2022-08-01T02:36:11;6.65;;;4.70;;
25503;SDS011;13410;52.114;5.718;2022-08-01T02:38:40;7.85;;;5.20;;
25503;SDS011;13410;52.114;5.718;2022-08-01T02:41:08;7.40;;;4.53;;
25503;SDS011;13410;52.114;5.718;2022-08-01T02:43:38;5.63;;;4.43;;
25503;SDS011;13410;52.114;5.718;2022-08-01T02:46:08;4.93;;;3.75;;
25503;SDS011;13410;52.114;5.718;2022-08-01T02:48:41;5.45;;;3.75;;
25503;SDS011;13410;52.114;5.718;2022-08-01T02:51:08;4.38;;;3.17;;
25503;SDS011;13410;52.114;5.718;2022-08-01T02:53:36;4.45;;;3.50;;
25503;SDS011;13410;52.114;5.718;2022-08-01T02:56:04;5.57;;;4.03;;
25503;SDS011;13410;52.114;5.718;2022-08-01T02:58:31;3.97;;;3.55;;
25503;SDS011;13410;52.114;5.718;2022-08-01T03:00:58;5.57;;;3.95;;
25503;SDS011;13410;52.114;5.718;2022-08-01T03:03:24;5.07;;;3.60;;
25503;SDS011;13410;52.114;5.718;2022-08-01T03:05:50;5.20;;;3.55;;
25503;SDS011;13410;52.114;5.718;2022-08-01T03:08:17;5.75;;;4.38;;
25503;SDS011;13410;52.114;5.718;2022-08-01T03:10:44;4.97;;;3.95;;
25503;SDS011;13410;52.114;5.718;2022-08-01T03:13:11;4.97;;;3.95;;
25503;SDS011;13410;52.114;5.718;2022-08-01T03:15:40;6.15;;;3.80;;
25503;SDS011;13410;52.114;5.718;2022-08-01T03:18:13;4.82;;;4.20;;
25503;SDS011;13410;52.114;5.718;2022-08-01T03:20:41;5.88;;;4.65;;
25503;SDS011;13410;52.114;5.718;2022-08-01T03:23:08;5.07;;;4.30;;
25503;SDS011;13410;52.114;5.718;2022-08-01T03:25:38;7.10;;;4.68;;
25503;SDS011;13410;52.114;5.718;2022-08-01T03:28:07;6.40;;;4.57;;
25503;SDS011;13410;52.114;5.718;2022-08-01T03:30:34;6.47;;;4.50;;
25503;SDS011;13410;52.114;5.718;2022-08-01T03:33:01;5.70;;;4.55;;
25503;SDS011;13410;52.114;5.718;2022-08-01T03:35:33;5.97;;;4.47;;
25503;SDS011;13410;52.114;5.718;2022-08-01T03:38:02;8.35;;;5.55;;
25503;SDS011;13410;52.114;5.718;2022-08-01T03:40:31;6.07;;;4.90;;
25503;SDS011;13410;52.114;5.718;2022-08-01T03:43:11;6.05;;;5.03;;
25503;SDS011;13410;52.114;5.718;2022-08-01T03:45:51;7.63;;;5.75;;
25503;SDS011;13410;52.114;5.718;2022-08-01T03:48:18;6.90;;;4.95;;
25503;SDS011;13410;52.114;5.718;2022-08-01T03:50:47;7.60;;;5.18;;
25503;SDS011;13410;52.114;5.718;2022-08-01T03:53:15;8.60;;;6.57;;
25503;SDS011;13410;52.114;5.718;2022-08-01T03:55:47;7.28;;;5.70;;
25503;SDS011;13410;52.114;5.718;2022-08-01T03:58:14;8.60;;;6.40;;
25503;SDS011;13410;52.114;5.718;2022-08-01T04:00:40;10.43;;;6.13;;
25503;SDS011;13410;52.114;5.718;2022-08-01T04:03:12;8.63;;;6.17;;
25503;SDS011;13410;52.114;5.718;2022-08-01T04:05:42;10.60;;;6.30;;
25503;SDS011;13410;52.114;5.718;2022-08-01T04:08:08;10.60;;;7.47;;
25503;SDS011;13410;52.114;5.718;2022-08-01T04:10:34;10.05;;;7.30;;
25503;SDS011;13410;52.114;5.718;2022-08-01T04:13:00;10.20;;;7.72;;
25503;SDS011;13410;52.114;5.718;2022-08-01T04:15:26;10.57;;;7.75;;
25503;SDS011;13410;52.114;5.718;2022-08-01T04:17:52;9.90;;;7.90;;
25503;SDS011;13410;52.114;5.718;2022-08-01T04:20:18;9.88;;;7.28;;
25503;SDS011;13410;52.114;5.718;2022-08-01T04:22:44;11.38;;;7.55;;
25503;SDS011;13410;52.114;5.718;2022-08-01T04:25:32;10.93;;;8.13;;
25503;SDS011;13410;52.114;5.718;2022-08-01T04:28:00;17.20;;;10.88;;
25503;SDS011;13410;52.114;5.718;2022-08-01T04:30:29;17.02;;;10.82;;
25503;SDS011;13410;52.114;5.718;2022-08-01T04:32:59;18.33;;;10.10;;
25503;SDS011;13410;52.114;5.718;2022-08-01T04:35:26;13.65;;;9.13;;
25503;SDS011;13410;52.114;5.718;2022-08-01T04:37:52;11.95;;;8.05;;
25503;SDS011;13410;52.114;5.718;2022-08-01T04:40:19;12.80;;;8.82;;
25503;SDS011;13410;52.114;5.718;2022-08-01T04:42:46;11.40;;;7.40;;
25503;SDS011;13410;52.114;5.718;2022-08-01T04:45:14;9.93;;;7.78;;
25503;SDS011;13410;52.114;5.718;2022-08-01T04:47:40;10.55;;;7.80;;
25503;SDS011;13410;52.114;5.718;2022-08-01T04:50:07;11.52;;;7.68;;
25503;SDS011;13410;52.114;5.718;2022-08-01T04:52:35;11.43;;;8.35;;
25503;SDS011;13410;52.114;5.718;2022-08-01T04:55:02;8.73;;;7.57;;
25503;SDS011;13410;52.114;5.718;2022-08-01T04:57:28;9.43;;;7.75;;
25503;SDS011;13410;52.114;5.718;2022-08-01T04:59:54;11.13;;;8.38;;
25503;SDS011;13410;52.114;5.718;2022-08-01T05:02:22;12.63;;;9.35;;
25503;SDS011;13410;52.114;5.718;2022-08-01T05:04:48;15.25;;;9.07;;
25503;SDS011;13410;52.114;5.718;2022-08-01T05:07:14;8.82;;;5.18;;
25503;SDS011;13410;52.114;5.718;2022-08-01T05:09:40;6.97;;;3.45;;
25503;SDS011;13410;52.114;5.718;2022-08-01T05:12:08;7.70;;;2.78;;
25503;SDS011;13410;52.114;5.718;2022-08-01T05:14:34;3.35;;;2.58;;
25503;SDS011;13410;52.114;5.718;2022-08-01T05:17:04;2.53;;;2.10;;
25503;SDS011;13410;52.114;5.718;2022-08-01T05:19:31;4.65;;;1.90;;
25503;SDS011;13410;52.114;5.718;2022-08-01T05:21:58;3.30;;;1.98;;
25503;SDS011;13410;52.114;5.718;2022-08-01T05:24:25;3.10;;;1.98;;
25503;SDS011;13410;52.114;5.718;2022-08-01T05:26:57;3.28;;;1.90;;
25503;SDS011;13410;52.114;5.718;2022-08-01T05:29:23;2.17;;;1.98;;
25503;SDS011;13410;52.114;5.718;2022-08-01T05:31:49;6.15;;;2.05;;
25503;SDS011;13410;52.114;5.718;2022-08-01T05:34:15;3.50;;;2.03;;
25503;SDS011;13410;52.114;5.718;2022-08-01T05:36:41;2.67;;;1.90;;
25503;SDS011;13410;52.114;5.718;2022-08-01T05:39:07;3.67;;;1.83;;
25503;SDS011;13410;52.114;5.718;2022-08-01T05:41:32;2.63;;;1.80;;
25503;SDS011;13410;52.114;5.718;2022-08-01T05:43:58;2.60;;;2.00;;
25503;SDS011;13410;52.114;5.718;2022-08-01T05:46:24;2.72;;;1.77;;
25503;SDS011;13410;52.114;5.718;2022-08-01T05:48:50;4.78;;;2.30;;
25503;SDS011;13410;52.114;5.718;2022-08-01T05:51:16;4.32;;;2.30;;
25503;SDS011;13410;52.114;5.718;2022-08-01T05:53:44;4.05;;;2.58;;
25503;SDS011;13410;52.114;5.718;2022-08-01T05:56:10;5.50;;;2.40;;
25503;SDS011;13410;52.114;5.718;2022-08-01T05:58:35;3.88;;;2.42;;
25503;SDS011;13410;52.114;5.718;2022-08-01T06:01:01;3.63;;;2.40;;
25503;SDS011;13410;52.114;5.718;2022-08-01T06:03:26;4.22;;;2.42;;
25503;SDS011;13410;52.114;5.718;2022-08-01T06:05:56;2.40;;;2.20;;
25503;SDS011;13410;52.114;5.718;2022-08-01T06:08:22;3.58;;;2.42;;
25503;SDS011;13410;52.114;5.718;2022-08-01T06:10:47;4.90;;;2.55;;
25503;SDS011;13410;52.114;5.718;2022-08-01T06:13:13;5.38;;;2.65;;
25503;SDS011;13410;52.114;5.718;2022-08-01T06:15:38;4.88;;;2.42;;
25503;SDS011;13410;52.114;5.718;2022-08-01T06:18:04;4.45;;;2.88;;
25503;SDS011;13410;52.114;5.718;2022-08-01T06:20:30;4.30;;;2.55;;
25503;SDS011;13410;52.114;5.718;2022-08-01T06:22:56;3.83;;;2.83;;
25503;SDS011;13410;52.114;5.718;2022-08-01T06:25:21;3.50;;;2.30;;
25503;SDS011;13410;52.114;5.718;2022-08-01T06:27:47;4.95;;;2.40;;
25503;SDS011;13410;52.114;5.718;2022-08-01T06:30:14;4.65;;;2.65;;
25503;SDS011;13410;52.114;5.718;2022-08-01T06:32:40;3.67;;;2.50;;
25503;SDS011;13410;52.114;5.718;2022-08-01T06:35:06;4.10;;;2.78;;
25503;SDS011;13410;52.114;5.718;2022-08-01T06:37:32;4.43;;;2.70;;
25503;SDS011;13410;52.114;5.718;2022-08-01T06:40:02;3.05;;;2.50;;
25503;SDS011;13410;52.114;5.718;2022-08-01T06:42:28;4.28;;;2.38;;
25503;SDS011;13410;52.114;5.718;2022-08-01T06:44:56;3.33;;;2.60;;
25503;SDS011;13410;52.114;5.718;2022-08-01T06:47:22;3.58;;;2.35;;
25503;SDS011;13410;52.114;5.718;2022-08-01T06:49:48;5.10;;;2.35;;
25503;SDS011;13410;52.114;5.718;2022-08-01T06:52:13;3.50;;;2.17;;
25503;SDS011;13410;52.114;5.718;2022-08-01T06:54:39;5.28;;;2.40;;
25503;SDS011;13410;52.114;5.718;2022-08-01T06:57:04;3.50;;;2.25;;
25503;SDS011;13410;52.114;5.718;2022-08-01T06:59:30;5.43;;;3.00;;
25503;SDS011;13410;52.114;5.718;2022-08-01T07:01:56;3.58;;;2.17;;
25503;SDS011;13410;52.114;5.718;2022-08-01T07:04:22;4.53;;;2.40;;
25503;SDS011;13410;52.114;5.718;2022-08-01T07:06:47;4.63;;;2.25;;
25503;SDS011;13410;52.114;5.718;2022-08-01T07:09:13;3.45;;;2.10;;
25503;SDS011;13410;52.114;5.718;2022-08-01T07:11:38;3.72;;;2.10;;
25503;SDS011;13410;52.114;5.718;2022-08-01T07:14:04;3.42;;;2.00;;
25503;SDS011;13410;52.114;5.718;2022-08-01T07:16:30;4.20;;;1.85;;
25503;SDS011;13410;52.114;5.718;2022-08-01T07:18:55;3.38;;;1.90;;
25503;SDS011;13410;52.114;5.718;2022-08-01T07:21:21;2.67;;;1.77;;
25503;SDS011;13410;52.114;5.718;2022-08-01T07:23:46;3.05;;;2.20;;
25503;SDS011;13410;52.114;5.718;2022-08-01T07:26:12;4.43;;;1.83;;
25503;SDS011;13410;52.114;5.718;2022-08-01T07:28:38;2.58;;;1.90;;
25503;SDS011;13410;52.114;5.718;2022-08-01T07:31:03;4.32;;;2.45;;
25503;SDS011;13410;52.114;5.718;2022-08-01T07:33:29;3.88;;;2.30;;
25503;SDS011;13410;52.114;5.718;2022-08-01T07:35:55;5.28;;;2.17;;
25503;SDS011;13410;52.114;5.718;2022-08-01T07:38:21;4.15;;;2.50;;
25503;SDS011;13410;52.114;5.718;2022-08-01T07:40:47;5.43;;;2.90;;
25503;SDS011;13410;52.114;5.718;2022-08-01T07:43:12;3.10;;;2.50;;
25503;SDS011;13410;52.114;5.718;2022-08-01T07:45:38;6.03;;;2.85;;
25503;SDS011;13410;52.114;5.718;2022-08-01T07:48:06;5.85;;;2.63;;
25503;SDS011;13410;52.114;5.718;2022-08-01T07:50:32;4.22;;;2.88;;
25503;SDS011;13410;52.114;5.718;2022-08-01T07:52:57;5.28;;;2.72;;
25503;SDS011;13410;52.114;5.718;2022-08-01T07:55:23;4.95;;;3.10;;
25503;SDS011;13410;52.114;5.718;2022-08-01T07:57:49;6.40;;;3.30;;
25503;SDS011;13410;52.114;5.718;2022-08-01T08:00:14;8.73;;;3.53;;
25503;SDS011;13410;52.114;5.718;2022-08-01T08:02:40;6.35;;;3.20;;
25503;SDS011;13410;52.114;5.718;2022-08-01T08:05:09;7.93;;;3.20;;
25503;SDS011;13410;52.114;5.718;2022-08-01T08:07:34;8.57;;;3.10;;
25503;SDS011;13410;52.114;5.718;2022-08-01T08:10:00;6.60;;;3.00;;
25503;SDS011;13410;52.114;5.718;2022-08-01T08:12:25;7.00;;;2.63;;
25503;SDS011;13410;52.114;5.718;2022-08-01T08:14:51;6.40;;;3.22;;
25503;SDS011;13410;52.114;5.718;2022-08-01T08:17:16;8.68;;;3.50;;
25503;SDS011;13410;52.114;5.718;2022-08-01T08:19:42;7.95;;;3.28;;
25503;SDS011;13410;52.114;5.718;2022-08-01T08:22:08;6.75;;;3.13;;
25503;SDS011;13410;52.114;5.718;2022-08-01T08:24:34;9.48;;;3.60;;
25503;SDS011;13410;52.114;5.718;2022-08-01T08:27:00;8.93;;;3.50;;
25503;SDS011;13410;52.114;5.718;2022-08-01T08:29:30;10.00;;;3.83;;
25503;SDS011;13410;52.114;5.718;2022-08-01T08:31:57;11.55;;;4.25;;
25503;SDS011;13410;52.114;5.718;2022-08-01T08:34:23;13.45;;;4.60;;
25503;SDS011;13410;52.114;5.718;2022-08-01T08:36:50;9.32;;;4.28;;
25503;SDS011;13410;52.114;5.718;2022-08-01T08:39:16;14.20;;;4.00;;
25503;SDS011;13410;52.114;5.718;2022-08-01T08:41:42;12.60;;;3.90;;
25503;SDS011;13410;52.114;5.718;2022-08-01T08:44:09;12.35;;;3.78;;
25503;SDS011;13410;52.114;5.718;2022-08-01T08:46:39;19.23;;;4.20;;
25503;SDS011;13410;52.114;5.718;2022-08-01T08:49:07;25.13;;;4.32;;
25503;SDS011;13410;52.114;5.718;2022-08-01T08:51:34;14.27;;;4.35;;
25503;SDS011;13410;52.114;5.718;2022-08-01T08:54:02;14.20;;;3.55;;
25503;SDS011;13410;52.114;5.718;2022-08-01T08:56:30;12.13;;;3.58;;
25503;SDS011;13410;52.114;5.718;2022-08-01T08:58:59;11.65;;;3.70;;
25503;SDS011;13410;52.114;5.718;2022-08-01T09:01:26;15.15;;;3.45;;
25503;SDS011;13410;52.114;5.718;2022-08-01T09:03:52;11.25;;;3.15;;
25503;SDS011;13410;52.114;5.718;2022-08-01T09:06:18;10.60;;;2.60;;
25503;SDS011;13410;52.114;5.718;2022-08-01T09:08:44;9.13;;;2.63;;
25503;SDS011;13410;52.114;5.718;2022-08-01T09:11:10;8.52;;;2.78;;
25503;SDS011;13410;52.114;5.718;2022-08-01T09:13:36;9.45;;;2.50;;
25503;SDS011;13410;52.114;5.718;2022-08-01T09:16:02;9.05;;;2.25;;
25503;SDS011;13410;52.114;5.718;2022-08-01T09:23:53;7.47;;;2.45;;
25503;SDS011;13410;52.114;5.718;2022-08-01T09:26:32;10.45;;;2.35;;
25503;SDS011;13410;52.114;5.718;2022-08-01T09:29:00;6.13;;;2.28;;
25503;SDS011;13410;52.114;5.718;2022-08-01T09:31:29;9.40;;;2.40;;
25503;SDS011;13410;52.114;5.718;2022-08-01T09:34:07;8.70;;;2.10;;
25503;SDS011;13410;52.114;5.718;2022-08-01T09:36:48;7.63;;;2.17;;
25503;SDS011;13410;52.114;5.718;2022-08-01T09:39:20;8.98;;;2.45;;
25503;SDS011;13410;52.114;5.718;2022-08-01T09:41:47;8.05;;;2.33;;
25503;SDS011;13410;52.114;5.718;2022-08-01T09:44:13;6.38;;;2.15;;
25503;SDS011;13410;52.114;5.718;2022-08-01T09:46:52;6.20;;;2.33;;
25503;SDS011;13410;52.114;5.718;2022-08-01T09:49:29;9.15;;;2.05;;
25503;SDS011;13410;52.114;5.718;2022-08-01T09:51:56;7.65;;;2.28;;
25503;SDS011;13410;52.114;5.718;2022-08-01T09:54:27;8.35;;;2.55;;
25503;SDS011;13410;52.114;5.718;2022-08-01T09:57:07;6.57;;;2.00;;
25503;SDS011;13410;52.114;5.718;2022-08-01T09:59:38;9.00;;;2.65;;
25503;SDS011;13410;52.114;5.718;2022-08-01T10:02:07;8.93;;;3.08;;
25503;SDS011;13410;52.114;5.718;2022-08-01T10:04:35;9.23;;;2.15;;
25503;SDS011;13410;52.114;5.718;2022-08-01T10:07:06;4.32;;;1.83;;
25503;SDS011;13410;52.114;5.718;2022-08-01T10:09:33;5.70;;;1.90;;
25503;SDS011;13410;52.114;5.718;2022-08-01T10:12:00;7.13;;;2.00;;
25503;SDS011;13410;52.114;5.718;2022-08-01T10:14:27;4.15;;;1.88;;
25503;SDS011;13410;52.114;5.718;2022-08-01T10:16:53;8.00;;;2.40;;
25503;SDS011;13410;52.114;5.718;2022-08-01T10:19:26;7.18;;;2.22;;
25503;SDS011;13410;52.114;5.718;2022-08-01T10:21:54;7.22;;;2.17;;
25503;SDS011;13410;52.114;5.718;2022-08-01T10:24:21;7.57;;;2.55;;
25503;SDS011;13410;52.114;5.718;2022-08-01T10:26:52;10.35;;;2.17;;
25503;SDS011;13410;52.114;5.718;2022-08-01T10:29:25;3.28;;;1.50;;
25503;SDS011;13410;52.114;5.718;2022-08-01T10:31:51;5.80;;;1.85;;
25503;SDS011;13410;52.114;5.718;2022-08-01T10:34:17;6.90;;;1.90;;
25503;SDS011;13410;52.114;5.718;2022-08-01T10:36:45;6.20;;;1.80;;
25503;SDS011;13410;52.114;5.718;2022-08-01T10:39:12;9.35;;;2.60;;
25503;SDS011;13410;52.114;5.718;2022-08-01T10:41:38;9.00;;;2.00;;
25503;SDS011;13410;52.114;5.718;2022-08-01T10:44:06;4.03;;;1.50;;
25503;SDS011;13410;52.114;5.718;2022-08-01T10:46:34;4.15;;;1.50;;
25503;SDS011;13410;52.114;5.718;2022-08-01T10:49:08;6.32;;;1.98;;
25503;SDS011;13410;52.114;5.718;2022-08-01T10:51:38;7.35;;;1.88;;
25503;SDS011;13410;52.114;5.718;2022-08-01T10:54:05;8.65;;;1.90;;
25503;SDS011;13410;52.114;5.718;2022-08-01T10:56:45;8.15;;;2.08;;
25503;SDS011;13410;52.114;5.718;2022-08-01T10:59:20;10.38;;;2.10;;
25503;SDS011;13410;52.114;5.718;2022-08-01T11:04:32;7.25;;;2.03;;
25503;SDS011;13410;52.114;5.718;2022-08-01T11:07:16;7.70;;;2.10;;
25503;SDS011;13410;52.114;5.718;2022-08-01T11:09:45;4.28;;;1.77;;
25503;SDS011;13410;52.114;5.718;2022-08-01T11:12:16;4.45;;;1.60;;
25503;SDS011;13410;52.114;5.718;2022-08-01T11:15:28;6.90;;;2.05;;
25503;SDS011;13410;52.114;5.718;2022-08-01T11:26:11;7.20;;;2.28;;
25503;SDS011;13410;52.114;5.718;2022-08-01T11:30:42;4.43;;;2.00;;
25503;SDS011;13410;52.114;5.718;2022-08-01T11:33:09;7.43;;;1.90;;
25503;SDS011;13410;52.114;5.718;2022-08-01T11:35:36;8.45;;;1.88;;
25503;SDS011;13410;52.114;5.718;2022-08-01T11:54:55;6.22;;;1.40;;
25503;SDS011;13410;52.114;5.718;2022-08-01T11:57:29;3.92;;;1.60;;
25503;SDS011;13410;52.114;5.718;2022-08-01T11:59:59;6.80;;;1.65;;
25503;SDS011;13410;52.114;5.718;2022-08-01T12:02:28;4.22;;;1.67;;
25503;SDS011;13410;52.114;5.718;2022-08-01T12:07:37;5.35;;;1.52;;
25503;SDS011;13410;52.114;5.718;2022-08-01T12:10:07;6.25;;;1.63;;
25503;SDS011;13410;52.114;5.718;2022-08-01T12:12:37;7.55;;;1.75;;
25503;SDS011;13410;52.114;5.718;2022-08-01T12:15:08;5.90;;;1.60;;
25503;SDS011;13410;52.114;5.718;2022-08-01T12:20:05;4.45;;;1.25;;
25503;SDS011;13410;52.114;5.718;2022-08-01T12:22:32;5.57;;;1.50;;
25503;SDS011;13410;52.114;5.718;2022-08-01T12:25:05;6.22;;;1.38;;
25503;SDS011;13410;52.114;5.718;2022-08-01T12:27:32;5.97;;;1.45;;
25503;SDS011;13410;52.114;5.718;2022-08-01T12:29:59;5.80;;;1.60;;
25503;SDS011;13410;52.114;5.718;2022-08-01T12:32:29;4.80;;;1.35;;
25503;SDS011;13410;52.114;5.718;2022-08-01T12:35:11;5.00;;;1.60;;
25503;SDS011;13410;52.114;5.718;2022-08-01T12:37:43;5.30;;;1.73;;
25503;SDS011;13410;52.114;5.718;2022-08-01T12:42:42;7.75;;;2.13;;
25503;SDS011;13410;52.114;5.718;2022-08-01T12:45:10;7.45;;;1.85;;
25503;SDS011;13410;52.114;5.718;2022-08-01T12:47:38;5.32;;;1.60;;
25503;SDS011;13410;52.114;5.718;2022-08-01T12:50:08;6.63;;;1.77;;
25503;SDS011;13410;52.114;5.718;2022-08-01T12:52:38;4.78;;;1.20;;
25503;SDS011;13410;52.114;5.718;2022-08-01T12:55:12;3.70;;;1.38;;
25503;SDS011;13410;52.114;5.718;2022-08-01T12:57:49;5.72;;;1.90;;
25503;SDS011;13410;52.114;5.718;2022-08-01T13:00:28;6.32;;;1.70;;
25503;SDS011;13410;52.114;5.718;2022-08-01T13:08:17;3.67;;;1.02;;
25503;SDS011;13410;52.114;5.718;2022-08-01T13:10:44;2.10;;;1.20;;
25503;SDS011;13410;52.114;5.718;2022-08-01T13:13:11;3.92;;;1.20;;
25503;SDS011;13410;52.114;5.718;2022-08-01T13:15:41;3.83;;;1.10;;
25503;SDS011;13410;52.114;5.718;2022-08-01T13:21:16;4.72;;;1.30;;
25503;SDS011;13410;52.114;5.718;2022-08-01T13:23:59;4.22;;;1.42;;
25503;SDS011;13410;52.114;5.718;2022-08-01T13:29:07;5.50;;;1.70;;
25503;SDS011;13410;52.114;5.718;2022-08-01T13:31:34;3.60;;;1.23;;
25503;SDS011;13410;52.114;5.718;2022-08-01T13:34:01;3.00;;;1.20;;
25503;SDS011;13410;52.114;5.718;2022-08-01T13:36:26;2.90;;;1.45;;
25503;SDS011;13410;52.114;5.718;2022-08-01T13:38:53;5.30;;;1.30;;
25503;SDS011;13410;52.114;5.718;2022-08-01T13:41:38;3.55;;;1.55;;
25503;SDS011;13410;52.114;5.718;2022-08-01T13:44:03;3.25;;;1.30;;
25503;SDS011;13410;52.114;5.718;2022-08-01T13:46:29;5.00;;;1.20;;
25503;SDS011;13410;52.114;5.718;2022-08-01T13:48:56;4.28;;;1.50;;
25503;SDS011;13410;52.114;5.718;2022-08-01T13:51:21;6.45;;;1.50;;
25503;SDS011;13410;52.114;5.718;2022-08-01T13:53:47;3.88;;;1.02;;
25503;SDS011;13410;52.114;5.718;2022-08-01T13:56:12;3.78;;;1.17;;
25503;SDS011;13410;52.114;5.718;2022-08-01T13:58:38;4.30;;;1.20;;
25503;SDS011;13410;52.114;5.718;2022-08-01T14:01:04;1.85;;;1.00;;
25503;SDS011;13410;52.114;5.718;2022-08-01T14:03:29;2.78;;;1.10;;
25503;SDS011;13410;52.114;5.718;2022-08-01T14:05:55;6.07;;;1.00;;
25503;SDS011;13410;52.114;5.718;2022-08-01T14:08:21;3.28;;;0.98;;
25503;SDS011;13410;52.114;5.718;2022-08-01T14:10:47;2.85;;;0.80;;
25503;SDS011;13410;52.114;5.718;2022-08-01T14:13:13;1.67;;;0.85;;
25503;SDS011;13410;52.114;5.718;2022-08-01T14:15:39;1.77;;;0.90;;
25503;SDS011;13410;52.114;5.718;2022-08-01T14:18:05;3.80;;;0.98;;
25503;SDS011;13410;52.114;5.718;2022-08-01T14:20:33;3.28;;;1.00;;
25503;SDS011;13410;52.114;5.718;2022-08-01T14:22:59;2.72;;;1.10;;
25503;SDS011;13410;52.114;5.718;2022-08-01T14:25:24;3.33;;;1.13;;
25503;SDS011;13410;52.114;5.718;2022-08-01T14:27:50;3.58;;;1.10;;
25503;SDS011;13410;52.114;5.718;2022-08-01T14:30:16;1.48;;;0.82;;
25503;SDS011;13410;52.114;5.718;2022-08-01T14:32:41;2.13;;;0.90;;
25503;SDS011;13410;52.114;5.718;2022-08-01T14:35:07;2.80;;;0.98;;
25503;SDS011;13410;52.114;5.718;2022-08-01T14:37:33;2.25;;;0.98;;
25503;SDS011;13410;52.114;5.718;2022-08-01T14:39:59;3.42;;;1.10;;
25503;SDS011;13410;52.114;5.718;2022-08-01T14:44:54;5.70;;;1.10;;
25503;SDS011;13410;52.114;5.718;2022-08-01T14:47:20;3.33;;;1.10;;
25503;SDS011;13410;52.114;5.718;2022-08-01T14:49:46;2.83;;;0.80;;
25503;SDS011;13410;52.114;5.718;2022-08-01T14:52:11;2.28;;;0.93;;
25503;SDS011;13410;52.114;5.718;2022-08-01T14:54:37;3.58;;;0.95;;
25503;SDS011;13410;52.114;5.718;2022-08-01T14:57:02;2.97;;;0.90;;
25503;SDS011;13410;52.114;5.718;2022-08-01T14:59:28;2.72;;;1.00;;
25503;SDS011;13410;52.114;5.718;2022-08-01T15:01:54;2.78;;;0.90;;
25503;SDS011;13410;52.114;5.718;2022-08-01T15:04:19;3.42;;;0.93;;
25503;SDS011;13410;52.114;5.718;2022-08-01T15:06:45;4.03;;;1.13;;
25503;SDS011;13410;52.114;5.718;2022-08-01T15:09:10;3.70;;;0.98;;
25503;SDS011;13410;52.114;5.718;2022-08-01T15:11:36;2.95;;;1.00;;
25503;SDS011;13410;52.114;5.718;2022-08-01T15:14:02;2.40;;;1.02;;
25503;SDS011;13410;52.114;5.718;2022-08-01T15:16:46;2.72;;;1.00;;
25503;SDS011;13410;52.114;5.718;2022-08-01T15:19:12;2.10;;;0.90;;
25503;SDS011;13410;52.114;5.718;2022-08-01T15:21:38;5.60;;;1.00;;
25503;SDS011;13410;52.114;5.718;2022-08-01T15:24:04;3.85;;;0.80;;
25503;SDS011;13410;52.114;5.718;2022-08-01T15:26:30;3.92;;;1.00;;
25503;SDS011;13410;52.114;5.718;2022-08-01T15:28:56;2.45;;;0.70;;
25503;SDS011;13410;52.114;5.718;2022-08-01T15:31:21;2.58;;;0.70;;
25503;SDS011;13410;52.114;5.718;2022-08-01T15:33:47;0.93;;;0.55;;
25503;SDS011;13410;52.114;5.718;2022-08-01T15:36:13;3.33;;;0.80;;
25503;SDS011;13410;52.114;5.718;2022-08-01T15:38:38;2.20;;;0.80;;
25503;SDS011;13410;52.114;5.718;2022-08-01T15:41:04;3.78;;;1.17;;
25503;SDS011;13410;52.114;5.718;2022-08-01T15:43:29;2.22;;;0.80;;
25503;SDS011;13410;52.114;5.718;2022-08-01T15:45:56;3.17;;;0.90;;
25503;SDS011;13410;52.114;5.718;2022-08-01T15:48:22;5.20;;;0.95;;
25503;SDS011;13410;52.114;5.718;2022-08-01T15:50:48;4.05;;;1.00;;
25503;SDS011;13410;52.114;5.718;2022-08-01T15:53:14;3.60;;;0.90;;
25503;SDS011;13410;52.114;5.718;2022-08-01T15:55:39;1.88;;;0.70;;
25503;SDS011;13410;52.114;5.718;2022-08-01T15:58:06;3.38;;;0.82;;
25503;SDS011;13410;52.114;5.718;2022-08-01T16:00:32;2.28;;;0.85;;